Time;durP1;ratioP1;P1;durP2;ratioP2;P2;SDS_P1;SDS_P2;PMS_P1;PMS_P2;Temp;Humidity;BMP_temperature;BMP_pressure;BME280_temperature;BME280_humidity;BME280_pressure;Samples;Min_cycle;Max_cycle;Signal;HPM_P1;HPM_P2
2022/05/20 00:01:51;;;;;;;6.10;4.00;;;;;;;;;;5044042;28;20033;-81
2022/05/20 00:04:17;;;;;;;6.78;4.25;;;;;;;;;;5004674;28;20112;-80
2022/05/20 00:06:43;;;;;;;9.40;4.63;;;;;;;;;;5010381;28;20053;-80
2022/05/20 00:09:09;;;;;;;8.30;4.50;;;;;;;;;;5002190;28;21669;-80
2022/05/20 00:11:35;;;;;;;8.05;4.80;;;;;;;;;;5022809;28;20325;-79
2022/05/20 00:14:01;;;;;;;8.82;5.32;;;;;;;;;;5005698;28;20109;-84
2022/05/20 00:16:34;;;;;;;8.32;5.25;;;;;;;;;;5020180;28;20037;-80
2022/05/20 00:19:01;;;;;;;9.15;5.75;;;;;;;;;;5018707;28;20041;-82
2022/05/20 00:21:27;;;;;;;13.82;6.95;;;;;;;;;;5019780;28;20064;-80
2022/05/20 00:23:53;;;;;;;9.20;6.10;;;;;;;;;;5003496;28;20046;-83
2022/05/20 00:26:19;;;;;;;7.90;6.10;;;;;;;;;;5018851;28;20136;-81
2022/05/20 00:28:48;;;;;;;10.18;6.88;;;;;;;;;;5017998;28;20045;-78
2022/05/20 00:31:15;;;;;;;11.55;6.90;;;;;;;;;;5017214;28;20049;-77
2022/05/20 00:33:41;;;;;;;10.75;6.95;;;;;;;;;;5022447;28;20498;-77
2022/05/20 00:36:08;;;;;;;15.63;7.60;;;;;;;;;;5018319;28;21656;-77
2022/05/20 00:38:34;;;;;;;11.73;7.50;;;;;;;;;;5020303;28;20109;-79
2022/05/20 00:41:00;;;;;;;15.65;7.97;;;;;;;;;;5018015;28;20041;-78
2022/05/20 00:43:27;;;;;;;11.18;7.88;;;;;;;;;;5019561;28;20033;-77
2022/05/20 00:45:57;;;;;;;13.18;7.95;;;;;;;;;;5000135;28;20104;-79
2022/05/20 00:48:24;;;;;;;12.35;8.30;;;;;;;;;;5023482;28;20048;-77
2022/05/20 00:50:59;;;;;;;15.50;8.60;;;;;;;;;;5020745;28;20463;-78
2022/05/20 00:53:28;;;;;;;12.35;8.35;;;;;;;;;;5020162;28;20049;-78
2022/05/20 00:55:54;;;;;;;15.30;9.27;;;;;;;;;;5017540;28;20047;-78
2022/05/20 00:58:22;;;;;;;12.85;9.82;;;;;;;;;;4998329;28;20081;-79
2022/05/20 01:00:50;;;;;;;17.77;9.73;;;;;;;;;;5021091;28;20052;-77
2022/05/20 01:03:18;;;;;;;13.90;10.23;;;;;;;;;;5029516;28;20044;-79
2022/05/20 01:05:45;;;;;;;16.90;10.57;;;;;;;;;;5000936;28;20033;-77
2022/05/20 01:08:13;;;;;;;12.10;9.75;;;;;;;;;;5016036;28;20625;-78
2022/05/20 01:10:39;;;;;;;12.98;10.38;;;;;;;;;;5018629;28;20227;-77
2022/05/20 01:13:05;;;;;;;16.00;10.40;;;;;;;;;;5017651;28;20041;-78
2022/05/20 01:15:31;;;;;;;12.18;10.30;;;;;;;;;;5017215;28;20034;-78
2022/05/20 01:17:58;;;;;;;17.77;11.45;;;;;;;;;;5018237;28;20168;-76
2022/05/20 01:20:27;;;;;;;14.95;10.82;;;;;;;;;;5017721;28;20069;-76
2022/05/20 01:23:02;;;;;;;18.17;11.25;;;;;;;;;;5017038;28;20077;-77
2022/05/20 01:25:30;;;;;;;13.35;10.73;;;;;;;;;;5018328;28;20084;-76
2022/05/20 01:27:56;;;;;;;16.02;11.02;;;;;;;;;;5018312;28;20042;-78
2022/05/20 01:30:24;;;;;;;19.52;11.95;;;;;;;;;;5016451;28;20108;-77
2022/05/20 01:32:50;;;;;;;15.75;11.48;;;;;;;;;;5020711;28;20531;-76
2022/05/20 01:35:28;;;;;;;14.07;11.77;;;;;;;;;;5000515;28;20078;-76
2022/05/20 01:37:54;;;;;;;18.77;11.93;;;;;;;;;;5019716;28;20079;-76
2022/05/20 01:40:20;;;;;;;18.33;12.88;;;;;;;;;;5016027;28;20038;-75
2022/05/20 01:42:51;;;;;;;16.58;12.32;;;;;;;;;;5018214;28;20033;-75
2022/05/20 01:45:21;;;;;;;16.25;12.60;;;;;;;;;;5016265;28;20037;-78
2022/05/20 01:47:51;;;;;;;19.95;12.15;;;;;;;;;;5016767;28;20072;-79
2022/05/20 01:50:22;;;;;;;13.82;11.75;;;;;;;;;;5022372;28;20128;-77
2022/05/20 01:52:54;;;;;;;15.25;12.07;;;;;;;;;;5022125;28;20087;-77
2022/05/20 01:55:24;;;;;;;18.08;11.82;;;;;;;;;;5018905;28;20041;-76
2022/05/20 01:58:05;;;;;;;21.67;12.23;;;;;;;;;;5018413;28;20080;-78
2022/05/20 02:00:35;;;;;;;15.68;12.05;;;;;;;;;;5009346;28;20795;-84
2022/05/20 02:03:20;;;;;;;20.20;13.63;;;;;;;;;;4997814;28;20053;-77
2022/05/20 02:06:01;;;;;;;16.13;12.32;;;;;;;;;;5018166;28;20135;-79
2022/05/20 02:08:27;;;;;;;15.13;12.07;;;;;;;;;;5024915;28;20442;-76
2022/05/20 02:11:17;;;;;;;17.75;11.80;;;;;;;;;;5024801;28;20123;-78
2022/05/20 02:13:46;;;;;;;16.85;12.07;;;;;;;;;;5016520;28;20104;-77
2022/05/20 02:16:21;;;;;;;18.50;12.35;;;;;;;;;;5021350;28;20045;-83
2022/05/20 02:18:59;;;;;;;16.83;12.27;;;;;;;;;;5027326;28;20037;-81
2022/05/20 02:21:26;;;;;;;16.65;12.48;;;;;;;;;;5020042;28;20080;-77
2022/05/20 02:23:57;;;;;;;16.55;12.52;;;;;;;;;;5025823;28;20426;-81
2022/05/20 02:26:25;;;;;;;19.88;13.13;;;;;;;;;;5021278;28;20072;-81
2022/05/20 02:28:56;;;;;;;19.63;12.63;;;;;;;;;;5025567;28;20124;-81
2022/05/20 02:31:30;;;;;;;14.30;12.55;;;;;;;;;;5006598;28;20041;-80
2022/05/20 02:33:56;;;;;;;18.95;13.52;;;;;;;;;;5034005;28;20490;-79
2022/05/20 02:36:24;;;;;;;15.57;13.82;;;;;;;;;;5031366;28;20453;-81
2022/05/20 02:38:50;;;;;;;19.30;13.63;;;;;;;;;;5039219;28;20041;-82
2022/05/20 02:41:16;;;;;;;23.10;14.98;;;;;;;;;;5008341;28;20048;-78
2022/05/20 02:43:43;;;;;;;21.23;14.15;;;;;;;;;;5036957;28;20136;-81
2022/05/20 02:46:09;;;;;;;19.00;14.93;;;;;;;;;;4995853;28;20060;-77
2022/05/20 02:48:36;;;;;;;19.10;15.55;;;;;;;;;;5024997;28;20033;-81
2022/05/20 02:51:02;;;;;;;19.83;16.25;;;;;;;;;;5028793;28;20065;-81
2022/05/20 02:53:28;;;;;;;22.33;16.17;;;;;;;;;;5037021;28;20053;-78
2022/05/20 02:55:54;;;;;;;22.42;17.00;;;;;;;;;;5036871;28;20060;-81
2022/05/20 03:04:10;;;;;;;25.95;19.13;;;;;;;;;;5033750;28;20041;-77
2022/05/20 03:06:43;;;;;;;23.75;20.63;;;;;;;;;;5029854;28;20045;-79
2022/05/20 03:09:10;;;;;;;26.63;19.98;;;;;;;;;;5031348;28;20636;-77
2022/05/20 03:11:39;;;;;;;26.50;21.23;;;;;;;;;;5029468;28;20107;-76
2022/05/20 03:14:06;;;;;;;23.58;20.77;;;;;;;;;;5015565;28;20509;-80
2022/05/20 03:16:32;;;;;;;27.80;21.25;;;;;;;;;;5019812;28;20037;-80
2022/05/20 03:18:59;;;;;;;23.67;20.58;;;;;;;;;;5022389;28;20844;-78
2022/05/20 03:21:25;;;;;;;26.98;22.70;;;;;;;;;;5013958;28;20267;-77
2022/05/20 03:23:51;;;;;;;26.98;21.85;;;;;;;;;;5013303;28;20094;-80
2022/05/20 03:26:18;;;;;;;25.45;21.67;;;;;;;;;;5001950;28;20048;-77
2022/05/20 03:28:45;;;;;;;31.38;23.27;;;;;;;;;;5018120;28;20159;-77
2022/05/20 03:31:12;;;;;;;34.45;22.90;;;;;;;;;;5018508;28;20045;-77
2022/05/20 03:33:39;;;;;;;29.05;22.67;;;;;;;;;;5020574;28;20107;-76
2022/05/20 03:36:09;;;;;;;30.23;23.13;;;;;;;;;;4993282;28;20041;-76
2022/05/20 03:38:36;;;;;;;28.10;23.08;;;;;;;;;;5015034;28;21015;-77
2022/05/20 03:41:02;;;;;;;26.60;23.70;;;;;;;;;;5031740;28;20463;-79
2022/05/20 03:43:28;;;;;;;41.17;23.13;;;;;;;;;;5019650;28;20079;-78
2022/05/20 03:45:55;;;;;;;28.45;22.77;;;;;;;;;;5012646;28;20096;-76
2022/05/20 03:48:21;;;;;;;31.25;23.42;;;;;;;;;;5000284;28;20049;-81
2022/05/20 03:50:47;;;;;;;33.35;26.40;;;;;;;;;;5024308;28;20038;-80
2022/05/20 03:53:14;;;;;;;33.25;25.75;;;;;;;;;;4997538;28;20034;-77
2022/05/20 03:55:40;;;;;;;37.92;26.63;;;;;;;;;;5020889;28;20037;-78
2022/05/20 03:58:06;;;;;;;28.13;25.05;;;;;;;;;;5034267;28;20076;-79
2022/05/20 04:03:18;;;;;;;33.30;25.73;;;;;;;;;;5019582;28;20042;-76
2022/05/20 04:05:44;;;;;;;29.45;23.90;;;;;;;;;;5022334;28;20041;-77
2022/05/20 04:08:10;;;;;;;30.20;24.48;;;;;;;;;;5033115;28;20041;-76
2022/05/20 04:10:37;;;;;;;29.40;25.17;;;;;;;;;;4998737;28;20064;-81
2022/05/20 04:13:03;;;;;;;31.50;24.55;;;;;;;;;;5019052;28;20076;-79
2022/05/20 04:15:29;;;;;;;31.83;25.15;;;;;;;;;;5019394;28;20042;-77
2022/05/20 04:17:55;;;;;;;32.28;26.48;;;;;;;;;;5035126;28;20030;-77
2022/05/20 04:20:21;;;;;;;33.25;25.75;;;;;;;;;;5019782;28;20051;-77
2022/05/20 04:22:47;;;;;;;30.67;24.92;;;;;;;;;;5016758;28;20076;-78
2022/05/20 04:25:13;;;;;;;29.23;24.83;;;;;;;;;;5003652;28;20075;-78
2022/05/20 04:27:39;;;;;;;32.47;24.48;;;;;;;;;;5025629;28;20519;-78
2022/05/20 04:30:06;;;;;;;29.42;23.90;;;;;;;;;;5015709;28;20042;-81
2022/05/20 04:32:32;;;;;;;32.15;24.77;;;;;;;;;;5026727;28;20052;-80
2022/05/20 04:34:58;;;;;;;29.48;23.15;;;;;;;;;;5017462;28;20519;-77
2022/05/20 04:37:25;;;;;;;29.23;22.42;;;;;;;;;;5020043;28;20048;-79
2022/05/20 04:39:51;;;;;;;34.58;23.90;;;;;;;;;;5017951;28;20051;-79
2022/05/20 04:47:47;;;;;;;28.98;21.92;;;;;;;;;;5015822;28;20049;-78
2022/05/20 04:50:13;;;;;;;28.73;21.80;;;;;;;;;;5018961;28;20045;-78
2022/05/20 04:52:39;;;;;;;32.03;22.70;;;;;;;;;;5036889;28;20037;-79
2022/05/20 04:55:07;;;;;;;28.98;22.02;;;;;;;;;;5017997;28;20402;-76
2022/05/20 04:57:33;;;;;;;29.33;21.70;;;;;;;;;;5036428;28;20569;-77
2022/05/20 05:00:03;;;;;;;32.28;22.40;;;;;;;;;;5014943;28;20260;-76
2022/05/20 05:02:29;;;;;;;30.90;20.95;;;;;;;;;;5015163;28;20273;-76
2022/05/20 05:04:55;;;;;;;31.13;21.92;;;;;;;;;;5017211;28;20043;-76
2022/05/20 05:07:22;;;;;;;28.00;21.60;;;;;;;;;;5020284;28;20087;-82
2022/05/20 05:09:48;;;;;;;27.95;22.50;;;;;;;;;;5017186;28;20042;-78
2022/05/20 05:12:15;;;;;;;33.42;21.92;;;;;;;;;;5001680;28;20041;-82
2022/05/20 05:14:43;;;;;;;28.27;22.38;;;;;;;;;;5002328;28;20041;-77
2022/05/20 05:17:10;;;;;;;31.73;21.73;;;;;;;;;;5038004;28;20049;-80
2022/05/20 05:19:38;;;;;;;31.80;22.42;;;;;;;;;;5028049;28;20113;-79
2022/05/20 05:22:08;;;;;;;33.60;23.17;;;;;;;;;;5038923;28;20048;-77
2022/05/20 05:24:35;;;;;;;33.35;24.55;;;;;;;;;;5032051;28;20044;-78
2022/05/20 05:27:01;;;;;;;28.10;22.17;;;;;;;;;;5031160;28;20504;-78
2022/05/20 05:29:28;;;;;;;35.13;22.60;;;;;;;;;;5032397;28;20088;-78
2022/05/20 05:32:00;;;;;;;30.47;22.63;;;;;;;;;;5021236;28;20044;-77
2022/05/20 05:34:26;;;;;;;31.13;22.17;;;;;;;;;;4981075;28;20049;-79
2022/05/20 05:36:59;;;;;;;31.80;22.38;;;;;;;;;;5009682;28;20111;-78
2022/05/20 05:39:25;;;;;;;35.10;23.13;;;;;;;;;;5011352;28;20051;-83
2022/05/20 05:41:51;;;;;;;31.35;23.08;;;;;;;;;;5005320;28;20072;-81
2022/05/20 05:44:17;;;;;;;28.48;22.48;;;;;;;;;;4978882;28;20648;-80
2022/05/20 05:46:44;;;;;;;38.45;24.30;;;;;;;;;;5007691;28;20049;-81
2022/05/20 05:49:10;;;;;;;33.38;21.88;;;;;;;;;;5039462;28;20032;-82
2022/05/20 05:51:37;;;;;;;26.75;22.33;;;;;;;;;;5057911;28;20029;-80
2022/05/20 05:54:03;;;;;;;32.28;21.77;;;;;;;;;;5030526;28;20037;-80
2022/05/20 05:56:29;;;;;;;34.72;22.02;;;;;;;;;;5052212;28;20044;-77
2022/05/20 05:58:57;;;;;;;28.58;20.10;;;;;;;;;;5040194;28;20033;-80
2022/05/20 06:01:24;;;;;;;30.88;19.77;;;;;;;;;;5043182;28;20045;-77
2022/05/20 06:03:56;;;;;;;29.33;19.23;;;;;;;;;;5019057;28;20041;-76
2022/05/20 06:06:23;;;;;;;33.60;20.65;;;;;;;;;;5005846;28;20103;-80
2022/05/20 06:08:49;;;;;;;25.30;18.58;;;;;;;;;;5003356;28;20041;-79
2022/05/20 06:11:15;;;;;;;26.65;18.75;;;;;;;;;;5006968;28;20048;-82
2022/05/20 06:13:41;;;;;;;25.13;18.08;;;;;;;;;;5027542;28;20034;-85
2022/05/20 06:16:08;;;;;;;25.73;18.48;;;;;;;;;;5030253;28;20071;-77
2022/05/20 06:18:34;;;;;;;33.58;20.08;;;;;;;;;;5027809;28;20049;-79
2022/05/20 06:21:01;;;;;;;25.45;17.55;;;;;;;;;;5002153;28;20477;-79
2022/05/20 06:23:27;;;;;;;27.58;16.73;;;;;;;;;;5009266;28;20543;-79
2022/05/20 06:25:53;;;;;;;24.85;15.68;;;;;;;;;;4996311;28;20057;-80
2022/05/20 06:28:20;;;;;;;22.58;15.07;;;;;;;;;;5026787;28;20129;-78
2022/05/20 06:30:46;;;;;;;25.80;12.27;;;;;;;;;;4998389;28;20045;-77
2022/05/20 06:33:13;;;;;;;28.75;14.65;;;;;;;;;;5026445;28;20135;-77
2022/05/20 06:41:09;;;;;;;21.10;12.15;;;;;;;;;;5026313;28;20045;-84
2022/05/20 06:43:35;;;;;;;16.23;11.32;;;;;;;;;;4990117;28;20041;-84
2022/05/20 06:46:03;;;;;;;14.85;9.35;;;;;;;;;;5025002;28;20033;-89
2022/05/20 06:48:40;;;;;;;17.92;10.25;;;;;;;;;;5026774;28;20412;-81
2022/05/20 06:51:07;;;;;;;12.75;8.95;;;;;;;;;;5019243;28;20048;-87
2022/05/20 06:53:33;;;;;;;15.80;10.05;;;;;;;;;;5021591;28;20448;-81
2022/05/20 06:56:00;;;;;;;15.02;8.70;;;;;;;;;;5022187;28;20500;-85
2022/05/20 06:58:26;;;;;;;18.40;9.63;;;;;;;;;;5020847;28;21272;-81
2022/05/20 07:00:52;;;;;;;14.00;8.85;;;;;;;;;;5020152;28;20090;-83
2022/05/20 07:03:21;;;;;;;16.77;9.45;;;;;;;;;;5024572;28;20063;-85
2022/05/20 07:05:48;;;;;;;15.90;8.82;;;;;;;;;;5024094;28;20048;-88
2022/05/20 07:08:14;;;;;;;15.70;8.27;;;;;;;;;;5024953;28;21110;-88
2022/05/20 07:10:40;;;;;;;19.13;8.80;;;;;;;;;;5024711;28;20315;-86
2022/05/20 07:13:07;;;;;;;13.38;8.35;;;;;;;;;;5026540;28;20473;-82
2022/05/20 07:15:33;;;;;;;21.77;7.45;;;;;;;;;;5023387;28;20045;-87
2022/05/20 07:17:59;;;;;;;16.45;7.82;;;;;;;;;;5023878;28;20045;-86
2022/05/20 07:20:25;;;;;;;14.27;6.60;;;;;;;;;;5027150;28;20057;-84
2022/05/20 07:22:52;;;;;;;11.75;6.72;;;;;;;;;;5030929;28;20075;-86
2022/05/20 07:25:19;;;;;;;10.40;6.53;;;;;;;;;;5035111;28;20045;-81
2022/05/20 07:27:45;;;;;;;12.98;6.80;;;;;;;;;;5036658;28;20048;-83
2022/05/20 07:30:12;;;;;;;14.32;7.50;;;;;;;;;;5026267;28;20037;-81
2022/05/20 07:32:38;;;;;;;14.05;6.25;;;;;;;;;;5028031;28;20037;-81
2022/05/20 07:35:05;;;;;;;13.13;6.88;;;;;;;;;;5030512;28;20069;-82
2022/05/20 07:37:31;;;;;;;9.38;6.93;;;;;;;;;;5029474;28;20045;-82
2022/05/20 07:39:57;;;;;;;11.38;7.28;;;;;;;;;;5027924;28;20049;-80
2022/05/20 07:42:23;;;;;;;9.32;5.45;;;;;;;;;;5024954;28;20036;-81
2022/05/20 07:44:50;;;;;;;11.40;5.57;;;;;;;;;;5021140;28;20052;-83
2022/05/20 07:47:20;;;;;;;10.82;6.60;;;;;;;;;;5009373;28;20056;-82
2022/05/20 07:49:46;;;;;;;16.58;6.80;;;;;;;;;;5026566;28;20106;-82
2022/05/20 07:53:19;;;;;;;16.10;8.05;;;;;;;;;;5030024;28;20040;-82
2022/05/20 07:55:00;;;;;;;13.43;8.95;;;;;;;;;;5024936;28;20084;-81
2022/05/20 07:57:26;;;;;;;12.95;8.73;;;;;;;;;;5024539;28;20056;-82
2022/05/20 07:59:53;;;;;;;16.02;8.70;;;;;;;;;;5025753;28;20052;-82
2022/05/20 08:02:21;;;;;;;13.93;9.80;;;;;;;;;;5021923;28;20086;-81
2022/05/20 08:05:00;;;;;;;20.63;9.57;;;;;;;;;;5024017;28;20131;-80
2022/05/20 08:07:31;;;;;;;11.98;8.57;;;;;;;;;;5022801;28;20046;-82
2022/05/20 08:09:58;;;;;;;10.13;8.18;;;;;;;;;;5028553;28;20056;-81
2022/05/20 08:12:25;;;;;;;12.85;8.88;;;;;;;;;;5032069;28;20045;-81
2022/05/20 08:14:51;;;;;;;10.73;7.65;;;;;;;;;;5013590;28;20060;-81
2022/05/20 08:17:20;;;;;;;14.88;8.50;;;;;;;;;;5031002;28;20040;-82
2022/05/20 08:19:55;;;;;;;10.77;7.18;;;;;;;;;;5028178;28;20049;-85
2022/05/20 08:22:22;;;;;;;15.15;5.63;;;;;;;;;;5011258;28;20049;-83
2022/05/20 08:25:08;;;;;;;10.68;6.93;;;;;;;;;;5031152;28;20045;-82
2022/05/20 08:27:34;;;;;;;12.70;7.00;;;;;;;;;;5032666;28;20041;-83
2022/05/20 08:30:14;;;;;;;10.30;6.40;;;;;;;;;;5031981;28;20439;-80
2022/05/20 08:32:40;;;;;;;9.18;4.72;;;;;;;;;;5022619;28;20528;-83
2022/05/20 08:35:07;;;;;;;10.23;6.75;;;;;;;;;;5001976;28;20038;-83
2022/05/20 08:37:37;;;;;;;14.27;7.88;;;;;;;;;;4990048;28;20081;-82
2022/05/20 08:40:03;;;;;;;11.02;6.97;;;;;;;;;;4988037;28;20053;-82
2022/05/20 08:42:33;;;;;;;10.25;7.13;;;;;;;;;;5013713;28;20377;-81
2022/05/20 08:45:01;;;;;;;15.05;7.47;;;;;;;;;;5003190;28;21163;-81
2022/05/20 08:47:52;;;;;;;10.35;6.32;;;;;;;;;;5002637;28;20494;-84
2022/05/20 08:50:32;;;;;;;10.80;5.70;;;;;;;;;;5020677;28;20096;-82
2022/05/20 08:52:59;;;;;;;8.85;5.43;;;;;;;;;;5028484;28;20457;-83
2022/05/20 08:55:25;;;;;;;8.85;5.93;;;;;;;;;;4993636;28;20124;-85
2022/05/20 08:57:54;;;;;;;14.77;7.18;;;;;;;;;;5029264;28;20528;-83
2022/05/20 09:00:20;;;;;;;8.20;5.95;;;;;;;;;;4988879;28;20037;-81
2022/05/20 09:02:46;;;;;;;9.95;5.75;;;;;;;;;;4996852;28;20050;-80
2022/05/20 09:05:23;;;;;;;7.28;4.90;;;;;;;;;;4990363;28;20063;-80
2022/05/20 09:07:55;;;;;;;10.75;5.20;;;;;;;;;;4990332;28;20465;-79
2022/05/20 09:10:33;;;;;;;10.25;5.57;;;;;;;;;;4989818;28;20046;-79
2022/05/20 09:16:13;;;;;;;8.13;4.90;;;;;;;;;;5021721;28;20084;-78
2022/05/20 09:18:40;;;;;;;22.05;6.30;;;;;;;;;;5009880;28;20041;-79
2022/05/20 09:21:07;;;;;;;10.77;5.63;;;;;;;;;;4992880;28;20057;-77
2022/05/20 09:23:47;;;;;;;15.05;6.70;;;;;;;;;;4989371;28;20045;-81
2022/05/20 09:26:13;;;;;;;13.98;6.85;;;;;;;;;;5006881;28;20046;-82
2022/05/20 09:28:41;;;;;;;12.65;5.90;;;;;;;;;;4989970;28;20129;-85
2022/05/20 09:31:19;;;;;;;6.85;4.10;;;;;;;;;;4989121;28;20441;-83
2022/05/20 09:33:51;;;;;;;7.85;4.40;;;;;;;;;;4974589;28;20528;-84
2022/05/20 09:36:34;;;;;;;9.18;4.65;;;;;;;;;;4973709;28;20057;-81
2022/05/20 09:39:09;;;;;;;8.40;4.60;;;;;;;;;;4989230;28;20064;-84
2022/05/20 09:41:44;;;;;;;7.82;4.53;;;;;;;;;;4989472;28;20054;-82
2022/05/20 09:44:11;;;;;;;9.73;4.95;;;;;;;;;;4978590;28;20041;-86
2022/05/20 09:46:48;;;;;;;8.95;4.53;;;;;;;;;;5026243;28;20081;-84
2022/05/20 09:49:21;;;;;;;5.95;4.40;;;;;;;;;;5008601;28;20148;-80
2022/05/20 09:51:55;;;;;;;9.00;4.28;;;;;;;;;;5008698;28;20054;-81
2022/05/20 09:54:34;;;;;;;8.88;4.60;;;;;;;;;;5026580;28;20529;-80
2022/05/20 09:57:33;;;;;;;9.75;3.90;;;;;;;;;;5025857;28;20057;-80
2022/05/20 10:00:08;;;;;;;5.65;3.78;;;;;;;;;;4992821;28;20072;-79
2022/05/20 10:02:53;;;;;;;9.57;4.25;;;;;;;;;;5024068;28;20054;-80
2022/05/20 10:05:19;;;;;;;9.07;4.55;;;;;;;;;;5024732;28;20049;-81
2022/05/20 10:07:55;;;;;;;5.15;3.90;;;;;;;;;;5026927;28;20563;-85
2022/05/20 10:10:40;;;;;;;11.07;4.60;;;;;;;;;;5024301;28;20160;-83
2022/05/20 10:13:08;;;;;;;7.25;3.95;;;;;;;;;;5024164;28;20060;-81
2022/05/20 10:15:56;;;;;;;8.88;3.67;;;;;;;;;;5030774;28;20061;-83
2022/05/20 10:18:29;;;;;;;7.32;4.30;;;;;;;;;;5008261;28;20593;-80
2022/05/20 10:20:58;;;;;;;8.38;4.10;;;;;;;;;;5026118;28;20041;-81
2022/05/20 10:23:43;;;;;;;7.45;4.20;;;;;;;;;;5025495;28;20498;-84
2022/05/20 10:26:12;;;;;;;6.80;4.35;;;;;;;;;;5023223;28;20044;-80
2022/05/20 10:34:20;;;;;;;10.35;4.72;;;;;;;;;;5029324;28;20055;-80
2022/05/20 10:37:00;;;;;;;4.88;3.72;;;;;;;;;;5012083;28;20060;-78
2022/05/20 10:39:52;;;;;;;7.40;3.25;;;;;;;;;;5027253;28;20057;-77
2022/05/20 10:42:34;;;;;;;8.15;5.20;;;;;;;;;;5029839;28;20085;-83
2022/05/20 10:50:49;;;;;;;;;;;;;;;;;;5015404;28;19972;-82
2022/05/20 10:53:38;;;;;;;8.07;4.45;;;;;;;;;;5013558;28;19928;-80
2022/05/20 10:56:24;;;;;;;9.85;4.80;;;;;;;;;;5009287;28;20514;-82
2022/05/20 10:59:08;;;;;;;10.00;4.35;;;;;;;;;;5017080;28;20061;-78
2022/05/20 11:01:55;;;;;;;7.30;4.70;;;;;;;;;;5012105;28;20049;-80
2022/05/20 11:04:25;;;;;;;9.27;4.20;;;;;;;;;;4996886;28;20038;-79
2022/05/20 11:07:06;;;;;;;6.95;4.38;;;;;;;;;;5018328;28;20045;-77
2022/05/20 11:09:52;;;;;;;11.90;4.57;;;;;;;;;;5031768;28;20057;-79
2022/05/20 11:12:32;;;;;;;10.48;5.00;;;;;;;;;;5016739;28;20049;-80
2022/05/20 11:15:06;;;;;;;9.82;4.40;;;;;;;;;;5045842;28;20081;-78
2022/05/20 11:17:51;;;;;;;10.25;5.43;;;;;;;;;;5045139;28;20093;-81
2022/05/20 11:20:32;;;;;;;7.18;4.82;;;;;;;;;;5026207;28;20127;-78
2022/05/20 11:22:58;;;;;;;6.55;4.78;;;;;;;;;;5010145;28;20046;-82
2022/05/20 11:25:43;;;;;;;8.07;4.25;;;;;;;;;;5011898;28;20045;-80
2022/05/20 11:28:18;;;;;;;10.05;5.45;;;;;;;;;;5029621;28;20054;-78
2022/05/20 11:31:03;;;;;;;10.95;5.78;;;;;;;;;;5047238;28;20085;-80
2022/05/20 11:33:46;;;;;;;7.88;4.57;;;;;;;;;;5026094;28;20064;-80
2022/05/20 11:36:15;;;;;;;7.75;4.45;;;;;;;;;;5003939;28;20109;-82
2022/05/20 11:38:56;;;;;;;8.20;5.25;;;;;;;;;;4966830;28;20058;-80
2022/05/20 11:41:25;;;;;;;7.72;4.80;;;;;;;;;;4972031;28;20046;-82
2022/05/20 11:44:10;;;;;;;9.82;5.07;;;;;;;;;;4982103;28;20037;-76
2022/05/20 11:46:49;;;;;;;9.18;4.43;;;;;;;;;;5033838;28;20049;-82
2022/05/20 11:49:15;;;;;;;8.75;4.75;;;;;;;;;;5048304;28;20132;-81
2022/05/20 11:51:41;;;;;;;7.15;4.78;;;;;;;;;;5041801;28;20087;-82
2022/05/20 11:54:24;;;;;;;9.82;5.00;;;;;;;;;;5037880;28;20417;-79
2022/05/20 11:56:54;;;;;;;8.48;4.40;;;;;;;;;;5035052;28;20092;-82
2022/05/20 11:59:27;;;;;;;7.35;4.75;;;;;;;;;;5014689;28;20103;-81
2022/05/20 12:01:56;;;;;;;8.60;5.20;;;;;;;;;;5023078;28;21267;-78
2022/05/20 12:04:23;;;;;;;5.70;4.50;;;;;;;;;;4991608;28;20328;-81
2022/05/20 12:07:01;;;;;;;7.38;4.65;;;;;;;;;;4993754;28;20064;-81
2022/05/20 12:09:27;;;;;;;8.23;4.05;;;;;;;;;;5012719;28;20119;-80
2022/05/20 12:12:09;;;;;;;8.40;4.53;;;;;;;;;;5009760;28;20042;-80
2022/05/20 12:14:54;;;;;;;8.38;4.40;;;;;;;;;;5009427;28;20054;-83
2022/05/20 12:17:33;;;;;;;8.43;4.68;;;;;;;;;;4995984;28;20150;-79
2022/05/20 12:26:04;;;;;;;7.60;4.07;;;;;;;;;;5006970;28;20104;-81
2022/05/20 12:28:31;;;;;;;10.25;4.75;;;;;;;;;;5016740;28;20080;-79
2022/05/20 12:31:11;;;;;;;8.38;4.32;;;;;;;;;;5014066;28;20034;-82
2022/05/20 12:34:03;;;;;;;6.53;4.20;;;21.90;99.90;;;;;;5019667;28;20068;-79
2022/05/20 12:36:29;;;;;;;6.13;4.25;;;;;;;;;;5029976;28;20172;-84
2022/05/20 12:39:08;;;;;;;8.85;4.75;;;;;;;;;;5028809;28;20029;-84
2022/05/20 12:41:34;;;;;;;6.43;4.07;;;;;;;;;;5029271;28;20053;-81
2022/05/20 12:44:20;;;;;;;8.10;4.15;;;;;;;;;;5027984;28;20073;-82
2022/05/20 12:46:52;;;;;;;6.43;3.92;;;;;;;;;;5022837;28;20065;-81
2022/05/20 12:49:19;;;;;;;5.78;3.95;;;;;;;;;;5029276;28;20051;-84
2022/05/20 12:51:50;;;;;;;6.05;3.90;;;;;;;;;;5028134;28;20045;-79
2022/05/20 12:54:27;;;;;;;5.72;3.60;;;;;;;;;;5032292;28;20111;-84
2022/05/20 12:56:54;;;;;;;6.85;4.20;;;;;;;;;;5039150;28;20519;-83
2022/05/20 12:59:21;;;;;;;5.40;3.95;;;;;;;;;;5032753;28;20517;-81
2022/05/20 13:02:01;;;;;;;9.85;4.10;;;;;;;;;;5032353;28;20030;-81
2022/05/20 13:04:34;;;;;;;5.88;4.20;;;;;;;;;;5028275;28;20092;-83
2022/05/20 13:07:01;;;;;;;7.50;3.80;;;;;;;;;;5027189;28;20057;-84
2022/05/20 13:09:29;;;;;;;5.78;3.90;;;;;;;;;;5027735;28;20041;-84
2022/05/20 13:12:03;;;;;;;5.93;4.28;;;;;;;;;;5026689;28;20046;-85
2022/05/20 13:14:29;;;;;;;;;;;;;;;;;;5028694;28;20045;-84
2022/05/20 13:16:55;;;;;;;6.07;3.45;;;;;;;;;;5009874;28;19925;-83
2022/05/20 13:19:36;;;;;;;6.22;3.70;;;21.80;99.90;;;;;;4992266;28;20192;-81
2022/05/20 13:22:05;;;;;;;7.72;4.28;;;;;;;;;;5027713;28;20049;-80
2022/05/20 13:24:34;;;;;;;8.02;3.60;;;;;;;;;;5014014;28;20049;-85
2022/05/20 13:27:04;;;;;;;5.97;4.03;;;;;;;;;;5009187;28;20045;-84
2022/05/20 13:29:30;;;;;;;7.93;4.35;;;;;;;;;;5026198;28;20386;-84
2022/05/20 13:32:14;;;;;;;7.47;4.10;;;;;;;;;;5007546;28;20049;-82
2022/05/20 13:34:45;;;;;;;6.85;4.75;;;;;;;;;;5024335;28;20050;-83
2022/05/20 13:37:13;;;;;;;7.95;3.55;;;;;;;;;;5025446;28;20136;-83
2022/05/20 13:39:40;;;;;;;4.78;4.20;;;;;;;;;;5021570;28;20094;-81
2022/05/20 13:42:11;;;;;;;4.55;3.53;;;;;;;;;;5022178;28;20076;-84
2022/05/20 13:44:39;;;;;;;6.72;4.18;;;;;;;;;;5022845;28;20041;-83
2022/05/20 13:49:51;;;;;;;5.65;3.42;;;;;;;;;;5020029;28;20049;-80
2022/05/20 13:52:18;;;;;;;5.18;3.15;;;;;;;;;;5021886;28;20046;-82
2022/05/20 13:54:46;;;;;;;6.05;3.50;;;;;;;;;;5002415;28;20060;-84
2022/05/20 13:57:14;;;;;;;5.13;3.33;;;;;;;;;;5023480;28;20049;-83
2022/05/20 13:59:41;;;;;;;8.52;3.65;;;;;;;;;;5022200;28;20038;-84
2022/05/20 14:02:13;;;;;;;3.53;3.13;;;;;;;;;;5022997;28;20089;-84
2022/05/20 14:04:48;;;;;;;5.05;3.25;;;;;;;;;;5024203;28;20064;-84
2022/05/20 14:07:16;;;;;;;3.78;2.63;;;;;;;;;;5025384;28;20099;-84
2022/05/20 14:09:43;;;;;;;4.70;2.90;;;;;;;;;;5031543;28;20041;-84
2022/05/20 14:12:15;;;;;;;5.68;3.00;;;;;;;;;;5030953;28;20049;-83
2022/05/20 14:14:42;;;;;;;6.70;2.70;;;;;;;;;;5029480;28;20038;-83
2022/05/20 14:17:08;;;;;;;3.70;2.60;;;;;;;;;;5032644;28;20033;-82
2022/05/20 14:19:45;;;;;;;4.57;2.75;;;;;;;;;;5050218;28;20119;-82
2022/05/20 14:22:27;;;;;;;8.90;3.15;;;;;;;;;;5040010;28;20049;-84
2022/05/20 14:24:53;;;;;;;7.55;3.40;;;;;;;;;;5007838;28;20520;-82
2022/05/20 14:27:39;;;;;;;16.90;3.45;;;;;;;;;;5027578;28;20128;-84
2022/05/20 14:30:17;;;;;;;10.77;3.15;;;;;;;;;;5029532;28;20512;-84
2022/05/20 14:32:43;;;;;;;11.38;3.25;;;;;;;;;;5013374;28;20087;-83
2022/05/20 14:35:10;;;;;;;7.05;2.70;;;;;;;;;;5027152;28;20053;-83
2022/05/20 14:37:36;;;;;;;8.65;4.50;;;;;;;;;;5029849;28;20116;-83
2022/05/20 14:40:11;;;;;;;5.47;2.55;;;;;;;;;;5017652;28;20080;-85
2022/05/20 14:42:40;;;;;;;9.18;2.55;;;;;;;;;;5047263;28;20053;-81
2022/05/20 14:45:26;;;;;;;10.45;3.47;;;;;;;;;;5044982;28;20030;-83
2022/05/20 14:47:59;;;;;;;8.02;3.70;;;;;;;;;;5027280;28;20063;-83
2022/05/20 14:50:27;;;;;;;5.40;3.10;;;;;;;;;;5042964;28;20049;-84
2022/05/20 14:52:55;;;;;;;12.63;3.55;;;;;;;;;;5027500;28;20088;-85
2022/05/20 14:55:39;;;;;;;10.25;3.90;;;;;;;;;;5030721;28;20654;-85
2022/05/20 14:58:25;;;;;;;5.80;3.00;;;;;;;;;;5013885;28;20061;-84
2022/05/20 15:00:53;;;;;;;6.78;3.80;;;;;;;;;;5011550;28;20489;-85
2022/05/20 15:03:19;;;;;;;3.80;3.30;;;;;;;;;;5028283;28;20383;-81
2022/05/20 15:05:46;;;;;;;5.75;3.55;;;;;;;;;;5030745;28;20060;-84
2022/05/20 15:08:13;;;;;;;4.22;3.17;;;;;;;;;;5029427;28;20053;-83
2022/05/20 15:10:40;;;;;;;6.18;3.92;;;;;;;;;;5030397;28;20396;-86
2022/05/20 15:13:06;;;;;;;7.15;3.83;;;;;;;;;;5029955;28;20421;-80
2022/05/20 15:15:32;;;;;;;14.82;4.25;;;;;;;;;;5031415;28;20102;-84
2022/05/20 15:18:01;;;;;;;8.73;5.20;;;;;;;;;;5011036;28;20063;-86
2022/05/20 15:20:29;;;;;;;6.70;4.65;;;;;;;;;;5014955;28;20060;-85
2022/05/20 15:22:56;;;;;;;8.48;5.15;;;;;;;;;;5026839;28;20045;-81
2022/05/20 15:25:22;;;;;;;12.90;7.85;;;;;;;;;;5025778;28;20120;-79
2022/05/20 15:27:48;;;;;;;12.10;8.35;;;;;;;;;;5029692;28;20041;-80
2022/05/20 15:30:15;;;;;;;13.07;8.82;;;;;;;;;;5027827;28;20139;-83
2022/05/20 15:35:27;;;;;;;14.70;9.88;;;;;;;;;;5028478;28;20065;-84